sensor_id;sensor_type;location;lat;lon;timestamp;P1;durP1;ratioP1;P2;durP2;ratioP2
8572;SDS011;4324;42.012;24.872;2022-07-04T00:00:24;3.97;;;3.53;;
8572;SDS011;4324;42.012;24.872;2022-07-04T00:02:53;3.50;;;3.20;;
8572;SDS011;4324;42.012;24.872;2022-07-04T00:05:20;4.97;;;3.60;;
8572;SDS011;4324;42.012;24.872;2022-07-04T00:07:48;6.30;;;4.10;;
8572;SDS011;4324;42.012;24.872;2022-07-04T00:10:18;4.90;;;4.50;;
8572;SDS011;4324;42.012;24.872;2022-07-04T00:12:46;6.23;;;5.63;;
8572;SDS011;4324;42.012;24.872;2022-07-04T00:15:14;6.23;;;5.63;;
8572;SDS011;4324;42.012;24.872;2022-07-04T00:17:41;6.23;;;5.83;;
8572;SDS011;4324;42.012;24.872;2022-07-04T00:20:10;6.40;;;5.90;;
8572;SDS011;4324;42.012;24.872;2022-07-04T00:22:39;6.07;;;5.57;;
8572;SDS011;4324;42.012;24.872;2022-07-04T00:25:06;6.77;;;6.03;;
8572;SDS011;4324;42.012;24.872;2022-07-04T00:27:33;6.17;;;5.63;;
8572;SDS011;4324;42.012;24.872;2022-07-04T00:30:02;5.60;;;4.57;;
8572;SDS011;4324;42.012;24.872;2022-07-04T00:32:30;5.13;;;4.63;;
8572;SDS011;4324;42.012;24.872;2022-07-04T00:35:00;5.17;;;4.67;;
8572;SDS011;4324;42.012;24.872;2022-07-04T00:37:28;5.40;;;4.90;;
8572;SDS011;4324;42.012;24.872;2022-07-04T00:39:55;5.33;;;4.90;;
8572;SDS011;4324;42.012;24.872;2022-07-04T00:42:22;5.77;;;5.27;;
8572;SDS011;4324;42.012;24.872;2022-07-04T00:44:49;5.80;;;5.30;;
8572;SDS011;4324;42.012;24.872;2022-07-04T00:47:16;5.93;;;5.40;;
8572;SDS011;4324;42.012;24.872;2022-07-04T00:49:43;6.00;;;5.50;;
8572;SDS011;4324;42.012;24.872;2022-07-04T00:52:10;5.90;;;5.50;;
8572;SDS011;4324;42.012;24.872;2022-07-04T00:54:40;6.10;;;5.60;;
8572;SDS011;4324;42.012;24.872;2022-07-04T00:57:07;6.00;;;5.27;;
8572;SDS011;4324;42.012;24.872;2022-07-04T00:59:35;6.37;;;5.77;;
8572;SDS011;4324;42.012;24.872;2022-07-04T01:02:02;6.30;;;5.70;;
8572;SDS011;4324;42.012;24.872;2022-07-04T01:04:29;6.03;;;5.47;;
8572;SDS011;4324;42.012;24.872;2022-07-04T01:06:56;6.37;;;5.77;;
8572;SDS011;4324;42.012;24.872;2022-07-04T01:09:23;5.97;;;5.50;;
8572;SDS011;4324;42.012;24.872;2022-07-04T01:11:51;7.67;;;5.70;;
8572;SDS011;4324;42.012;24.872;2022-07-04T01:14:18;6.00;;;5.60;;
8572;SDS011;4324;42.012;24.872;2022-07-04T01:16:45;6.20;;;5.60;;
8572;SDS011;4324;42.012;24.872;2022-07-04T01:19:12;5.77;;;5.27;;
8572;SDS011;4324;42.012;24.872;2022-07-04T01:21:40;6.03;;;5.53;;
8572;SDS011;4324;42.012;24.872;2022-07-04T01:24:10;5.77;;;5.37;;
8572;SDS011;4324;42.012;24.872;2022-07-04T01:26:38;5.97;;;5.57;;
8572;SDS011;4324;42.012;24.872;2022-07-04T01:29:04;6.50;;;5.80;;
8572;SDS011;4324;42.012;24.872;2022-07-04T01:31:32;6.70;;;6.20;;
8572;SDS011;4324;42.012;24.872;2022-07-04T01:33:58;6.00;;;5.50;;
8572;SDS011;4324;42.012;24.872;2022-07-04T01:36:26;5.90;;;5.40;;
8572;SDS011;4324;42.012;24.872;2022-07-04T01:38:54;6.00;;;5.60;;
8572;SDS011;4324;42.012;24.872;2022-07-04T01:41:21;6.70;;;6.00;;
8572;SDS011;4324;42.012;24.872;2022-07-04T01:43:49;6.07;;;5.60;;
8572;SDS011;4324;42.012;24.872;2022-07-04T01:46:16;6.57;;;5.97;;
8572;SDS011;4324;42.012;24.872;2022-07-04T01:48:42;6.73;;;6.23;;
8572;SDS011;4324;42.012;24.872;2022-07-04T01:51:09;6.30;;;5.80;;
8572;SDS011;4324;42.012;24.872;2022-07-04T01:53:36;6.40;;;5.73;;
8572;SDS011;4324;42.012;24.872;2022-07-04T01:56:05;5.67;;;5.27;;
8572;SDS011;4324;42.012;24.872;2022-07-04T01:58:32;26.40;;;8.07;;
8572;SDS011;4324;42.012;24.872;2022-07-04T02:00:59;27.10;;;8.10;;
8572;SDS011;4324;42.012;24.872;2022-07-04T02:03:44;10.03;;;5.87;;
8572;SDS011;4324;42.012;24.872;2022-07-04T02:06:11;7.20;;;6.17;;
8572;SDS011;4324;42.012;24.872;2022-07-04T02:08:38;6.27;;;5.67;;
8572;SDS011;4324;42.012;24.872;2022-07-04T02:11:25;5.60;;;5.10;;
8572;SDS011;4324;42.012;24.872;2022-07-04T02:13:52;5.50;;;5.10;;
8572;SDS011;4324;42.012;24.872;2022-07-04T02:16:18;6.07;;;5.53;;
8572;SDS011;4324;42.012;24.872;2022-07-04T02:18:45;6.37;;;4.90;;
8572;SDS011;4324;42.012;24.872;2022-07-04T02:21:12;7.23;;;5.80;;
8572;SDS011;4324;42.012;24.872;2022-07-04T02:23:39;8.13;;;7.33;;
8572;SDS011;4324;42.012;24.872;2022-07-04T02:26:06;6.70;;;6.07;;
8572;SDS011;4324;42.012;24.872;2022-07-04T02:28:34;6.03;;;5.53;;
8572;SDS011;4324;42.012;24.872;2022-07-04T02:31:02;6.30;;;5.80;;
8572;SDS011;4324;42.012;24.872;2022-07-04T02:33:29;6.10;;;5.70;;
8572;SDS011;4324;42.012;24.872;2022-07-04T02:35:55;5.97;;;5.27;;
8572;SDS011;4324;42.012;24.872;2022-07-04T02:38:22;6.17;;;5.57;;
8572;SDS011;4324;42.012;24.872;2022-07-04T02:40:49;6.37;;;5.77;;
8572;SDS011;4324;42.012;24.872;2022-07-04T02:43:16;8.40;;;7.60;;
8572;SDS011;4324;42.012;24.872;2022-07-04T02:45:44;6.97;;;5.73;;
8572;SDS011;4324;42.012;24.872;2022-07-04T02:48:11;7.43;;;6.83;;
8572;SDS011;4324;42.012;24.872;2022-07-04T02:50:38;6.27;;;5.67;;
8572;SDS011;4324;42.012;24.872;2022-07-04T02:53:05;9.17;;;5.87;;
8572;SDS011;4324;42.012;24.872;2022-07-04T02:55:32;5.90;;;5.40;;
8572;SDS011;4324;42.012;24.872;2022-07-04T02:57:59;5.83;;;5.33;;
8572;SDS011;4324;42.012;24.872;2022-07-04T03:00:26;5.60;;;5.20;;
8572;SDS011;4324;42.012;24.872;2022-07-04T03:02:54;8.30;;;5.33;;
8572;SDS011;4324;42.012;24.872;2022-07-04T03:05:21;8.93;;;5.80;;
8572;SDS011;4324;42.012;24.872;2022-07-04T03:07:48;6.00;;;5.40;;
8572;SDS011;4324;42.012;24.872;2022-07-04T03:10:15;5.30;;;4.90;;
8572;SDS011;4324;42.012;24.872;2022-07-04T03:12:42;6.50;;;5.90;;
8572;SDS011;4324;42.012;24.872;2022-07-04T03:15:09;6.80;;;5.90;;
8572;SDS011;4324;42.012;24.872;2022-07-04T03:17:37;5.73;;;5.17;;
8572;SDS011;4324;42.012;24.872;2022-07-04T03:20:07;5.80;;;5.20;;
8572;SDS011;4324;42.012;24.872;2022-07-04T03:22:34;6.13;;;5.50;;
8572;SDS011;4324;42.012;24.872;2022-07-04T03:25:01;5.73;;;5.23;;
8572;SDS011;4324;42.012;24.872;2022-07-04T03:27:30;6.30;;;5.70;;
8572;SDS011;4324;42.012;24.872;2022-07-04T03:29:57;5.70;;;5.30;;
8572;SDS011;4324;42.012;24.872;2022-07-04T03:32:24;5.90;;;5.40;;
8572;SDS011;4324;42.012;24.872;2022-07-04T03:34:50;6.43;;;5.93;;
8572;SDS011;4324;42.012;24.872;2022-07-04T03:37:19;6.10;;;5.60;;
8572;SDS011;4324;42.012;24.872;2022-07-04T03:39:46;6.37;;;5.70;;
8572;SDS011;4324;42.012;24.872;2022-07-04T03:42:13;6.80;;;6.23;;
8572;SDS011;4324;42.012;24.872;2022-07-04T03:44:40;6.53;;;5.73;;
8572;SDS011;4324;42.012;24.872;2022-07-04T03:47:07;7.53;;;6.03;;
8572;SDS011;4324;42.012;24.872;2022-07-04T03:49:34;6.47;;;5.73;;
8572;SDS011;4324;42.012;24.872;2022-07-04T03:52:01;9.90;;;6.33;;
8572;SDS011;4324;42.012;24.872;2022-07-04T03:54:29;6.60;;;5.80;;
8572;SDS011;4324;42.012;24.872;2022-07-04T03:56:56;6.87;;;6.20;;
8572;SDS011;4324;42.012;24.872;2022-07-04T03:59:23;6.50;;;5.03;;
8572;SDS011;4324;42.012;24.872;2022-07-04T04:01:50;6.33;;;5.77;;
8572;SDS011;4324;42.012;24.872;2022-07-04T04:04:20;5.70;;;5.30;;
8572;SDS011;4324;42.012;24.872;2022-07-04T04:07:04;8.97;;;8.07;;
8572;SDS011;4324;42.012;24.872;2022-07-04T04:09:33;10.43;;;8.37;;
8572;SDS011;4324;42.012;24.872;2022-07-04T04:12:00;8.63;;;6.50;;
8572;SDS011;4324;42.012;24.872;2022-07-04T04:14:27;10.20;;;5.77;;
8572;SDS011;4324;42.012;24.872;2022-07-04T04:16:54;7.80;;;6.63;;
8572;SDS011;4324;42.012;24.872;2022-07-04T04:19:20;9.47;;;8.67;;
8572;SDS011;4324;42.012;24.872;2022-07-04T04:21:47;7.13;;;6.47;;
8572;SDS011;4324;42.012;24.872;2022-07-04T04:24:14;6.43;;;5.87;;
8572;SDS011;4324;42.012;24.872;2022-07-04T04:26:43;6.53;;;5.93;;
8572;SDS011;4324;42.012;24.872;2022-07-04T04:29:10;7.03;;;6.17;;
8572;SDS011;4324;42.012;24.872;2022-07-04T04:31:36;7.17;;;6.50;;
8572;SDS011;4324;42.012;24.872;2022-07-04T04:34:03;7.23;;;6.63;;
8572;SDS011;4324;42.012;24.872;2022-07-04T04:36:31;7.30;;;6.27;;
8572;SDS011;4324;42.012;24.872;2022-07-04T04:38:58;10.63;;;6.57;;
8572;SDS011;4324;42.012;24.872;2022-07-04T04:41:25;8.97;;;6.70;;
8572;SDS011;4324;42.012;24.872;2022-07-04T04:43:53;6.63;;;6.03;;
8572;SDS011;4324;42.012;24.872;2022-07-04T04:46:22;10.43;;;7.20;;
8572;SDS011;4324;42.012;24.872;2022-07-04T04:48:49;11.73;;;6.87;;
8572;SDS011;4324;42.012;24.872;2022-07-04T04:51:16;8.33;;;6.73;;
8572;SDS011;4324;42.012;24.872;2022-07-04T04:53:43;7.43;;;6.70;;
8572;SDS011;4324;42.012;24.872;2022-07-04T04:56:10;7.77;;;5.80;;
8572;SDS011;4324;42.012;24.872;2022-07-04T04:58:37;6.60;;;6.00;;
8572;SDS011;4324;42.012;24.872;2022-07-04T05:01:06;8.07;;;5.87;;
8572;SDS011;4324;42.012;24.872;2022-07-04T05:03:33;7.33;;;6.73;;
8572;SDS011;4324;42.012;24.872;2022-07-04T05:06:00;10.60;;;9.60;;
8572;SDS011;4324;42.012;24.872;2022-07-04T05:08:27;8.50;;;7.80;;
8572;SDS011;4324;42.012;24.872;2022-07-04T05:10:54;6.87;;;6.23;;
8572;SDS011;4324;42.012;24.872;2022-07-04T05:13:21;7.10;;;6.23;;
8572;SDS011;4324;42.012;24.872;2022-07-04T05:15:48;10.20;;;6.10;;
8572;SDS011;4324;42.012;24.872;2022-07-04T05:18:16;7.63;;;6.00;;
8572;SDS011;4324;42.012;24.872;2022-07-04T05:20:43;6.20;;;5.70;;
8572;SDS011;4324;42.012;24.872;2022-07-04T05:23:10;7.63;;;6.80;;
8572;SDS011;4324;42.012;24.872;2022-07-04T05:25:37;7.97;;;6.87;;
8572;SDS011;4324;42.012;24.872;2022-07-04T05:28:04;8.17;;;6.43;;
8572;SDS011;4324;42.012;24.872;2022-07-04T05:30:32;8.73;;;5.90;;
8572;SDS011;4324;42.012;24.872;2022-07-04T05:32:59;8.13;;;7.30;;
8572;SDS011;4324;42.012;24.872;2022-07-04T05:35:28;9.40;;;6.50;;
8572;SDS011;4324;42.012;24.872;2022-07-04T05:37:55;12.07;;;6.43;;
8572;SDS011;4324;42.012;24.872;2022-07-04T05:40:22;10.50;;;7.00;;
8572;SDS011;4324;42.012;24.872;2022-07-04T05:42:50;8.30;;;6.10;;
8572;SDS011;4324;42.012;24.872;2022-07-04T05:45:17;10.60;;;7.60;;
8572;SDS011;4324;42.012;24.872;2022-07-04T05:47:43;13.27;;;7.30;;
8572;SDS011;4324;42.012;24.872;2022-07-04T05:50:13;14.03;;;7.23;;
8572;SDS011;4324;42.012;24.872;2022-07-04T05:52:41;10.03;;;6.87;;
8572;SDS011;4324;42.012;24.872;2022-07-04T05:55:08;12.30;;;6.93;;
8572;SDS011;4324;42.012;24.872;2022-07-04T05:57:36;10.80;;;6.90;;
8572;SDS011;4324;42.012;24.872;2022-07-04T06:00:03;12.40;;;7.53;;
8572;SDS011;4324;42.012;24.872;2022-07-04T06:02:31;14.33;;;8.20;;
8572;SDS011;4324;42.012;24.872;2022-07-04T06:04:58;12.87;;;8.40;;
8572;SDS011;4324;42.012;24.872;2022-07-04T06:07:25;13.37;;;7.90;;
8572;SDS011;4324;42.012;24.872;2022-07-04T06:09:53;8.70;;;6.97;;
8572;SDS011;4324;42.012;24.872;2022-07-04T06:12:20;10.70;;;6.90;;
8572;SDS011;4324;42.012;24.872;2022-07-04T06:14:47;8.50;;;7.20;;
8572;SDS011;4324;42.012;24.872;2022-07-04T06:17:14;11.77;;;7.47;;
8572;SDS011;4324;42.012;24.872;2022-07-04T06:19:41;7.40;;;6.70;;
8572;SDS011;4324;42.012;24.872;2022-07-04T06:22:08;9.97;;;7.10;;
8572;SDS011;4324;42.012;24.872;2022-07-04T06:24:35;8.40;;;7.40;;
8572;SDS011;4324;42.012;24.872;2022-07-04T06:27:03;9.93;;;7.27;;
8572;SDS011;4324;42.012;24.872;2022-07-04T06:29:31;7.60;;;7.00;;
8572;SDS011;4324;42.012;24.872;2022-07-04T06:31:57;8.03;;;7.33;;
8572;SDS011;4324;42.012;24.872;2022-07-04T06:34:25;9.03;;;7.73;;
8572;SDS011;4324;42.012;24.872;2022-07-04T06:37:10;7.73;;;6.83;;
8572;SDS011;4324;42.012;24.872;2022-07-04T06:39:37;9.83;;;7.03;;
8572;SDS011;4324;42.012;24.872;2022-07-04T06:42:05;7.53;;;6.33;;
8572;SDS011;4324;42.012;24.872;2022-07-04T06:44:32;7.07;;;6.27;;
8572;SDS011;4324;42.012;24.872;2022-07-04T06:46:59;7.97;;;5.87;;
8572;SDS011;4324;42.012;24.872;2022-07-04T06:49:26;9.60;;;7.37;;
8572;SDS011;4324;42.012;24.872;2022-07-04T06:51:53;6.97;;;6.07;;
8572;SDS011;4324;42.012;24.872;2022-07-04T06:54:20;6.43;;;5.83;;
8572;SDS011;4324;42.012;24.872;2022-07-04T06:56:47;6.70;;;6.10;;
8572;SDS011;4324;42.012;24.872;2022-07-04T06:59:17;9.50;;;6.20;;
8572;SDS011;4324;42.012;24.872;2022-07-04T07:01:44;6.47;;;5.90;;
8572;SDS011;4324;42.012;24.872;2022-07-04T07:04:11;6.00;;;5.30;;
8572;SDS011;4324;42.012;24.872;2022-07-04T07:06:38;7.07;;;5.90;;
8572;SDS011;4324;42.012;24.872;2022-07-04T07:09:05;9.57;;;6.63;;
8572;SDS011;4324;42.012;24.872;2022-07-04T07:11:32;7.17;;;6.40;;
8572;SDS011;4324;42.012;24.872;2022-07-04T07:13:59;7.40;;;6.70;;
8572;SDS011;4324;42.012;24.872;2022-07-04T07:16:27;6.83;;;6.23;;
8572;SDS011;4324;42.012;24.872;2022-07-04T07:18:54;7.20;;;6.50;;
8572;SDS011;4324;42.012;24.872;2022-07-04T07:21:21;11.53;;;5.77;;
8572;SDS011;4324;42.012;24.872;2022-07-04T07:23:48;9.23;;;6.10;;
8572;SDS011;4324;42.012;24.872;2022-07-04T07:26:15;6.53;;;5.60;;
8572;SDS011;4324;42.012;24.872;2022-07-04T07:28:42;6.40;;;5.80;;
8572;SDS011;4324;42.012;24.872;2022-07-04T07:31:10;7.10;;;5.77;;
8572;SDS011;4324;42.012;24.872;2022-07-04T07:33:38;6.93;;;5.60;;
8572;SDS011;4324;42.012;24.872;2022-07-04T07:36:05;13.07;;;7.80;;
8572;SDS011;4324;42.012;24.872;2022-07-04T07:38:32;8.53;;;6.20;;
8572;SDS011;4324;42.012;24.872;2022-07-04T07:40:59;9.13;;;6.27;;
8572;SDS011;4324;42.012;24.872;2022-07-04T07:43:28;7.57;;;5.77;;
8572;SDS011;4324;42.012;24.872;2022-07-04T07:45:55;6.10;;;5.47;;
8572;SDS011;4324;42.012;24.872;2022-07-04T07:48:22;5.90;;;5.40;;
8572;SDS011;4324;42.012;24.872;2022-07-04T07:50:54;6.63;;;6.03;;
8572;SDS011;4324;42.012;24.872;2022-07-04T07:53:21;8.13;;;6.70;;
8572;SDS011;4324;42.012;24.872;2022-07-04T07:55:48;7.50;;;5.43;;
8572;SDS011;4324;42.012;24.872;2022-07-04T07:58:15;8.17;;;6.17;;
8572;SDS011;4324;42.012;24.872;2022-07-04T08:00:42;11.13;;;6.43;;
8572;SDS011;4324;42.012;24.872;2022-07-04T08:03:09;6.70;;;6.07;;
8572;SDS011;4324;42.012;24.872;2022-07-04T08:05:55;7.37;;;6.00;;
8572;SDS011;4324;42.012;24.872;2022-07-04T08:08:22;8.67;;;5.70;;
8572;SDS011;4324;42.012;24.872;2022-07-04T08:10:50;7.30;;;6.37;;
8572;SDS011;4324;42.012;24.872;2022-07-04T08:13:16;7.60;;;6.43;;
8572;SDS011;4324;42.012;24.872;2022-07-04T08:15:43;8.53;;;6.03;;
8572;SDS011;4324;42.012;24.872;2022-07-04T08:18:10;8.57;;;6.30;;
8572;SDS011;4324;42.012;24.872;2022-07-04T08:20:37;6.47;;;5.90;;
8572;SDS011;4324;42.012;24.872;2022-07-04T08:23:06;7.07;;;6.37;;
8572;SDS011;4324;42.012;24.872;2022-07-04T08:25:33;6.97;;;5.50;;
8572;SDS011;4324;42.012;24.872;2022-07-04T08:28:00;9.60;;;7.07;;
8572;SDS011;4324;42.012;24.872;2022-07-04T08:30:27;5.63;;;5.13;;
8572;SDS011;4324;42.012;24.872;2022-07-04T08:32:53;5.17;;;4.83;;
8572;SDS011;4324;42.012;24.872;2022-07-04T08:35:21;6.63;;;6.10;;
8572;SDS011;4324;42.012;24.872;2022-07-04T08:37:47;6.10;;;5.60;;
8572;SDS011;4324;42.012;24.872;2022-07-04T08:40:20;6.23;;;5.37;;
8572;SDS011;4324;42.012;24.872;2022-07-04T08:42:48;10.83;;;5.80;;
8572;SDS011;4324;42.012;24.872;2022-07-04T08:45:16;6.13;;;5.33;;
8572;SDS011;4324;42.012;24.872;2022-07-04T08:47:49;6.07;;;5.57;;
8572;SDS011;4324;42.012;24.872;2022-07-04T08:50:21;6.13;;;5.53;;
8572;SDS011;4324;42.012;24.872;2022-07-04T08:52:53;5.03;;;4.60;;
8572;SDS011;4324;42.012;24.872;2022-07-04T08:55:24;5.20;;;4.70;;
8572;SDS011;4324;42.012;24.872;2022-07-04T08:58:09;7.13;;;5.03;;
8572;SDS011;4324;42.012;24.872;2022-07-04T09:00:54;5.00;;;4.60;;
8572;SDS011;4324;42.012;24.872;2022-07-04T09:03:22;5.33;;;4.80;;
8572;SDS011;4324;42.012;24.872;2022-07-04T09:05:50;6.73;;;6.13;;
8572;SDS011;4324;42.012;24.872;2022-07-04T09:08:17;9.03;;;8.13;;
8572;SDS011;4324;42.012;24.872;2022-07-04T09:10:46;6.20;;;5.47;;
8572;SDS011;4324;42.012;24.872;2022-07-04T09:13:14;5.13;;;4.67;;
8572;SDS011;4324;42.012;24.872;2022-07-04T09:15:43;4.77;;;4.37;;
8572;SDS011;4324;42.012;24.872;2022-07-04T09:18:22;5.57;;;5.07;;
8572;SDS011;4324;42.012;24.872;2022-07-04T09:20:51;8.70;;;5.67;;
8572;SDS011;4324;42.012;24.872;2022-07-04T09:23:19;4.68;;;4.10;;
8572;SDS011;4324;42.012;24.872;2022-07-04T09:25:49;4.27;;;3.87;;
8572;SDS011;4324;42.012;24.872;2022-07-04T09:28:33;6.18;;;4.57;;
8572;SDS011;4324;42.012;24.872;2022-07-04T09:31:01;5.82;;;4.63;;
8572;SDS011;4324;42.012;24.872;2022-07-04T09:33:43;5.50;;;4.05;;
8572;SDS011;4324;42.012;24.872;2022-07-04T09:36:16;6.77;;;5.00;;
8572;SDS011;4324;42.012;24.872;2022-07-04T09:41:49;3.97;;;3.67;;
8572;SDS011;4324;42.012;24.872;2022-07-04T09:44:20;4.13;;;3.53;;
8572;SDS011;4324;42.012;24.872;2022-07-04T09:46:51;4.57;;;3.53;;
8572;SDS011;4324;42.012;24.872;2022-07-04T09:49:18;5.30;;;3.38;;
8572;SDS011;4324;42.012;24.872;2022-07-04T09:51:46;4.13;;;3.72;;
8572;SDS011;4324;42.012;24.872;2022-07-04T09:54:18;7.40;;;5.15;;
8572;SDS011;4324;42.012;24.872;2022-07-04T09:56:52;8.27;;;5.83;;
8572;SDS011;4324;42.012;24.872;2022-07-04T09:59:20;5.03;;;4.10;;
8572;SDS011;4324;42.012;24.872;2022-07-04T10:01:48;3.40;;;3.10;;
8572;SDS011;4324;42.012;24.872;2022-07-04T10:04:15;5.30;;;4.70;;
8572;SDS011;4324;42.012;24.872;2022-07-04T10:06:43;7.50;;;4.00;;
8572;SDS011;4324;42.012;24.872;2022-07-04T10:09:12;4.32;;;3.92;;
8572;SDS011;4324;42.012;24.872;2022-07-04T10:11:40;4.38;;;3.92;;
8572;SDS011;4324;42.012;24.872;2022-07-04T10:14:10;5.87;;;4.70;;
8572;SDS011;4324;42.012;24.872;2022-07-04T10:16:40;4.07;;;3.67;;
8572;SDS011;4324;42.012;24.872;2022-07-04T10:19:07;4.37;;;3.97;;
8572;SDS011;4324;42.012;24.872;2022-07-04T10:21:37;5.18;;;3.75;;
8572;SDS011;4324;42.012;24.872;2022-07-04T10:24:05;6.30;;;3.85;;
8572;SDS011;4324;42.012;24.872;2022-07-04T10:26:33;4.30;;;3.90;;
8572;SDS011;4324;42.012;24.872;2022-07-04T10:29:00;5.72;;;3.67;;
8572;SDS011;4324;42.012;24.872;2022-07-04T10:31:29;5.00;;;4.60;;
8572;SDS011;4324;42.012;24.872;2022-07-04T10:33:58;4.30;;;3.67;;
8572;SDS011;4324;42.012;24.872;2022-07-04T10:36:26;4.60;;;4.18;;
8572;SDS011;4324;42.012;24.872;2022-07-04T10:38:55;5.28;;;4.25;;
8572;SDS011;4324;42.012;24.872;2022-07-04T10:41:25;6.15;;;3.90;;
8572;SDS011;4324;42.012;24.872;2022-07-04T10:43:54;4.22;;;3.83;;
8572;SDS011;4324;42.012;24.872;2022-07-04T10:46:26;4.35;;;4.05;;
8572;SDS011;4324;42.012;24.872;2022-07-04T10:49:26;5.15;;;4.45;;
8572;SDS011;4324;42.012;24.872;2022-07-04T10:51:55;4.72;;;4.30;;
8572;SDS011;4324;42.012;24.872;2022-07-04T10:54:34;5.47;;;4.75;;
8572;SDS011;4324;42.012;24.872;2022-07-04T10:57:09;4.60;;;4.03;;
8572;SDS011;4324;42.012;24.872;2022-07-04T10:59:38;4.53;;;4.22;;
8572;SDS011;4324;42.012;24.872;2022-07-04T11:02:23;5.45;;;4.95;;
8572;SDS011;4324;42.012;24.872;2022-07-04T11:04:53;4.55;;;4.20;;
8572;SDS011;4324;42.012;24.872;2022-07-04T11:07:22;7.93;;;7.10;;
8572;SDS011;4324;42.012;24.872;2022-07-04T11:10:20;4.95;;;4.38;;
8572;SDS011;4324;42.012;24.872;2022-07-04T11:13:02;6.05;;;5.60;;
8572;SDS011;4324;42.012;24.872;2022-07-04T11:15:57;5.90;;;4.07;;
8572;SDS011;4324;42.012;24.872;2022-07-04T11:18:28;7.65;;;4.43;;
8572;SDS011;4324;42.012;24.872;2022-07-04T11:20:57;4.47;;;4.07;;
8572;SDS011;4324;42.012;24.872;2022-07-04T11:23:24;5.20;;;4.72;;
8572;SDS011;4324;42.012;24.872;2022-07-04T11:25:52;5.65;;;4.80;;
8572;SDS011;4324;42.012;24.872;2022-07-04T11:28:22;4.45;;;4.03;;
8572;SDS011;4324;42.012;24.872;2022-07-04T11:30:50;5.30;;;4.90;;
8572;SDS011;4324;42.012;24.872;2022-07-04T11:33:18;4.88;;;4.43;;
8572;SDS011;4324;42.012;24.872;2022-07-04T11:36:03;5.05;;;4.65;;
8572;SDS011;4324;42.012;24.872;2022-07-04T11:38:44;4.68;;;4.20;;
8572;SDS011;4324;42.012;24.872;2022-07-04T11:41:13;5.75;;;5.15;;
8572;SDS011;4324;42.012;24.872;2022-07-04T11:43:59;6.03;;;4.15;;
8572;SDS011;4324;42.012;24.872;2022-07-04T11:46:46;4.53;;;3.97;;
8572;SDS011;4324;42.012;24.872;2022-07-04T11:49:13;6.57;;;4.18;;
8572;SDS011;4324;42.012;24.872;2022-07-04T11:51:42;4.35;;;3.90;;
8572;SDS011;4324;42.012;24.872;2022-07-04T11:54:10;4.20;;;3.90;;
8572;SDS011;4324;42.012;24.872;2022-07-04T11:56:37;4.20;;;3.83;;
8572;SDS011;4324;42.012;24.872;2022-07-04T11:59:11;10.93;;;5.63;;
8572;SDS011;4324;42.012;24.872;2022-07-04T12:01:41;4.88;;;4.20;;
8572;SDS011;4324;42.012;24.872;2022-07-04T12:04:15;4.95;;;4.55;;
8572;SDS011;4324;42.012;24.872;2022-07-04T12:06:45;4.50;;;4.20;;
8572;SDS011;4324;42.012;24.872;2022-07-04T12:09:14;4.20;;;3.50;;
8572;SDS011;4324;42.012;24.872;2022-07-04T12:11:53;4.03;;;3.63;;
8572;SDS011;4324;42.012;24.872;2022-07-04T12:14:22;4.55;;;4.25;;
8572;SDS011;4324;42.012;24.872;2022-07-04T12:16:49;5.40;;;4.45;;
8572;SDS011;4324;42.012;24.872;2022-07-04T12:19:34;4.95;;;4.03;;
8572;SDS011;4324;42.012;24.872;2022-07-04T12:22:02;4.20;;;3.90;;
8572;SDS011;4324;42.012;24.872;2022-07-04T12:24:38;4.70;;;4.30;;
8572;SDS011;4324;42.012;24.872;2022-07-04T12:27:06;4.78;;;3.88;;
8572;SDS011;4324;42.012;24.872;2022-07-04T12:29:46;4.75;;;4.35;;
8572;SDS011;4324;42.012;24.872;2022-07-04T12:32:13;5.63;;;5.13;;
8572;SDS011;4324;42.012;24.872;2022-07-04T12:34:40;5.57;;;4.45;;
8572;SDS011;4324;42.012;24.872;2022-07-04T12:37:09;4.03;;;3.72;;
8572;SDS011;4324;42.012;24.872;2022-07-04T12:39:39;4.38;;;4.03;;
8572;SDS011;4324;42.012;24.872;2022-07-04T12:42:09;4.80;;;4.30;;
8572;SDS011;4324;42.012;24.872;2022-07-04T12:44:38;4.15;;;3.85;;
8572;SDS011;4324;42.012;24.872;2022-07-04T12:47:07;6.63;;;6.05;;
8572;SDS011;4324;42.012;24.872;2022-07-04T12:49:35;8.38;;;4.00;;
8572;SDS011;4324;42.012;24.872;2022-07-04T12:52:03;5.75;;;5.25;;
8572;SDS011;4324;42.012;24.872;2022-07-04T12:54:32;5.38;;;4.97;;
8572;SDS011;4324;42.012;24.872;2022-07-04T12:57:04;6.35;;;5.82;;
8572;SDS011;4324;42.012;24.872;2022-07-04T12:59:32;7.47;;;6.75;;
8572;SDS011;4324;42.012;24.872;2022-07-04T13:02:01;5.30;;;3.90;;
8572;SDS011;4324;42.012;24.872;2022-07-04T13:04:29;4.25;;;3.95;;
8572;SDS011;4324;42.012;24.872;2022-07-04T13:06:59;4.32;;;4.00;;
8572;SDS011;4324;42.012;24.872;2022-07-04T13:09:26;4.05;;;3.75;;
8572;SDS011;4324;42.012;24.872;2022-07-04T13:11:55;4.90;;;4.40;;
8572;SDS011;4324;42.012;24.872;2022-07-04T13:14:40;7.00;;;4.57;;
8572;SDS011;4324;42.012;24.872;2022-07-04T13:17:07;4.90;;;4.47;;
8572;SDS011;4324;42.012;24.872;2022-07-04T13:19:34;5.55;;;4.63;;
8572;SDS011;4324;42.012;24.872;2022-07-04T13:22:01;4.30;;;4.00;;
8572;SDS011;4324;42.012;24.872;2022-07-04T13:24:28;4.43;;;4.13;;
8572;SDS011;4324;42.012;24.872;2022-07-04T13:26:56;5.60;;;4.13;;
8572;SDS011;4324;42.012;24.872;2022-07-04T13:29:23;5.18;;;4.78;;
8572;SDS011;4324;42.012;24.872;2022-07-04T13:31:50;5.50;;;5.00;;
8572;SDS011;4324;42.012;24.872;2022-07-04T13:34:17;5.05;;;4.65;;
8572;SDS011;4324;42.012;24.872;2022-07-04T13:36:44;4.15;;;3.65;;
8572;SDS011;4324;42.012;24.872;2022-07-04T13:39:11;5.88;;;4.63;;
8572;SDS011;4324;42.012;24.872;2022-07-04T13:41:41;4.85;;;4.35;;
8572;SDS011;4324;42.012;24.872;2022-07-04T13:44:10;4.18;;;3.88;;
8572;SDS011;4324;42.012;24.872;2022-07-04T13:46:41;5.72;;;5.15;;
8572;SDS011;4324;42.012;24.872;2022-07-04T13:49:08;4.72;;;4.32;;
8572;SDS011;4324;42.012;24.872;2022-07-04T13:51:37;4.30;;;3.90;;
8572;SDS011;4324;42.012;24.872;2022-07-04T13:54:04;4.25;;;3.45;;
8572;SDS011;4324;42.012;24.872;2022-07-04T13:56:30;4.50;;;4.13;;
8572;SDS011;4324;42.012;24.872;2022-07-04T13:58:58;5.00;;;4.60;;
8572;SDS011;4324;42.012;24.872;2022-07-04T14:01:27;4.93;;;4.43;;
8572;SDS011;4324;42.012;24.872;2022-07-04T14:03:56;7.65;;;4.80;;
8572;SDS011;4324;42.012;24.872;2022-07-04T14:06:23;6.22;;;3.78;;
8572;SDS011;4324;42.012;24.872;2022-07-04T14:08:50;4.65;;;3.42;;
8572;SDS011;4324;42.012;24.872;2022-07-04T14:11:17;6.70;;;4.28;;
8572;SDS011;4324;42.012;24.872;2022-07-04T14:13:44;5.68;;;4.93;;
8572;SDS011;4324;42.012;24.872;2022-07-04T14:16:10;4.22;;;3.88;;
8572;SDS011;4324;42.012;24.872;2022-07-04T14:18:39;4.60;;;3.60;;
8572;SDS011;4324;42.012;24.872;2022-07-04T14:21:06;4.35;;;3.95;;
8572;SDS011;4324;42.012;24.872;2022-07-04T14:23:32;4.03;;;3.75;;
8572;SDS011;4324;42.012;24.872;2022-07-04T14:26:11;4.45;;;4.15;;
8572;SDS011;4324;42.012;24.872;2022-07-04T14:28:39;4.50;;;3.83;;
8572;SDS011;4324;42.012;24.872;2022-07-04T14:31:06;5.82;;;3.75;;
8572;SDS011;4324;42.012;24.872;2022-07-04T14:33:34;4.85;;;4.45;;
8572;SDS011;4324;42.012;24.872;2022-07-04T14:36:03;5.15;;;4.72;;
8572;SDS011;4324;42.012;24.872;2022-07-04T14:38:32;4.57;;;4.18;;
8572;SDS011;4324;42.012;24.872;2022-07-04T14:40:59;3.85;;;3.55;;
8572;SDS011;4324;42.012;24.872;2022-07-04T14:43:35;4.40;;;4.10;;
8572;SDS011;4324;42.012;24.872;2022-07-04T14:46:04;6.03;;;3.90;;
8572;SDS011;4324;42.012;24.872;2022-07-04T14:48:31;4.75;;;4.32;;
8572;SDS011;4324;42.012;24.872;2022-07-04T14:50:58;4.10;;;3.80;;
8572;SDS011;4324;42.012;24.872;2022-07-04T14:53:27;3.85;;;3.53;;
8572;SDS011;4324;42.012;24.872;2022-07-04T14:55:54;3.72;;;3.42;;
8572;SDS011;4324;42.012;24.872;2022-07-04T14:58:21;3.92;;;3.63;;
8572;SDS011;4324;42.012;24.872;2022-07-04T15:00:48;5.38;;;5.00;;
8572;SDS011;4324;42.012;24.872;2022-07-04T15:03:15;8.48;;;7.72;;
8572;SDS011;4324;42.012;24.872;2022-07-04T15:05:42;4.40;;;3.92;;
8572;SDS011;4324;42.012;24.872;2022-07-04T15:08:10;6.30;;;4.57;;
8572;SDS011;4324;42.012;24.872;2022-07-04T15:10:38;5.43;;;5.03;;
8572;SDS011;4324;42.012;24.872;2022-07-04T15:13:05;5.30;;;4.82;;